Time;durP1;ratioP1;P1;durP2;ratioP2;P2;SDS_P1;SDS_P2;PMS_P1;PMS_P2;Temp;Humidity;BMP_temperature;BMP_pressure;BME280_temperature;BME280_humidity;BME280_pressure;Samples;Min_cycle;Max_cycle;Signal;HPM_P1;HPM_P2
2022/03/26 00:01:26;;;;;;;0.10;0.10;;;;;;;;;;4937417;29;20199;-72
2022/03/26 00:03:54;;;;;;;0.00;0.00;;;;;;;;;;4937453;29;20668;-72
2022/03/26 00:06:22;;;;;;;0.63;0.40;;;;;;;;;;4937522;29;20203;-71
2022/03/26 00:08:49;;;;;;;0.00;0.00;;;;;;;;;;4937207;29;20232;-73
2022/03/26 00:11:17;;;;;;;0.67;0.67;;;;;;;;;;4937430;29;20203;-72
2022/03/26 00:13:44;;;;;;;0.00;0.00;;;;;;;;;;4937182;29;20196;-73
2022/03/26 00:16:12;;;;;;;0.50;0.50;;;;;;;;;;4937122;29;20192;-73
2022/03/26 00:18:41;;;;;;;0.73;0.73;;;;;;;;;;4936903;29;20206;-73
2022/03/26 00:21:08;;;;;;;0.00;0.00;;;;;;;;;;4937048;29;20195;-73
2022/03/26 00:23:36;;;;;;;0.00;0.00;;;;;;;;;;4936906;29;20191;-73
2022/03/26 00:26:04;;;;;;;0.00;0.00;;;;;;;;;;4937076;29;20202;-73
2022/03/26 00:28:31;;;;;;;0.00;0.00;;;;;;;;;;4936711;29;20199;-72
2022/03/26 00:30:59;;;;;;;0.23;0.23;;;;;;;;;;4936801;29;20657;-72
2022/03/26 00:33:26;;;;;;;0.03;0.03;;;;;;;;;;4936995;29;20203;-73
2022/03/26 00:35:55;;;;;;;0.00;0.00;;;;;;;;;;4936988;29;20206;-73
2022/03/26 00:38:24;;;;;;;0.23;0.23;;;;;;;;;;4936752;29;20697;-72
2022/03/26 00:40:51;;;;;;;0.23;0.23;;;;;;;;;;4936735;29;20204;-72
2022/03/26 00:43:18;;;;;;;0.10;0.10;;;;;;;;;;4936523;29;20204;-72
2022/03/26 00:45:46;;;;;;;6.73;5.63;;;;;;;;;;4936780;29;20210;-71
2022/03/26 00:48:14;;;;;;;0.87;0.87;;;;;;;;;;4936569;29;20200;-71
2022/03/26 00:50:41;;;;;;;0.00;0.00;;;;;;;;;;4936562;29;20234;-71
2022/03/26 00:53:10;;;;;;;0.00;0.00;;;;;;;;;;4936601;29;20192;-71
2022/03/26 00:55:38;;;;;;;0.00;0.00;;;;;;;;;;4936631;29;20211;-72
2022/03/26 00:58:06;;;;;;;0.00;0.00;;;;;;;;;;4936129;29;20652;-72
2022/03/26 01:00:33;;;;;;;0.00;0.00;;;;;;;;;;4936242;29;20195;-73
2022/03/26 01:03:02;;;;;;;2.40;2.20;;;;;;;;;;4936565;29;20280;-72
2022/03/26 01:05:30;;;;;;;1.23;0.47;;;;;;;;;;4936364;29;20192;-72
2022/03/26 01:07:58;;;;;;;0.00;0.00;;;;;;;;;;4936191;29;20669;-73
2022/03/26 01:10:28;;;;;;;0.00;0.00;;;;;;;;;;4936146;29;20235;-72
2022/03/26 01:12:55;;;;;;;0.00;0.00;;;;;;;;;;4936105;29;20196;-73
2022/03/26 01:15:23;;;;;;;0.00;0.00;;;;;;;;;;4936151;29;20218;-72
2022/03/26 01:17:51;;;;;;;0.00;0.00;;;;;;;;;;4936143;29;20196;-73
2022/03/26 01:20:19;;;;;;;0.00;0.00;;;;;;;;;;4936002;29;20223;-72
2022/03/26 01:22:46;;;;;;;0.30;0.30;;;;;;;;;;4935755;29;20206;-73
2022/03/26 01:25:14;;;;;;;0.00;0.00;;;;;;;;;;4935903;29;20286;-72
2022/03/26 01:27:43;;;;;;;0.00;0.00;;;;;;;;;;4935994;29;20278;-72
2022/03/26 01:30:12;;;;;;;0.00;0.00;;;;;;;;;;4935795;29;20331;-72
2022/03/26 01:32:39;;;;;;;0.00;0.00;;;;;;;;;;4935552;29;20298;-71
2022/03/26 01:35:08;;;;;;;0.10;0.10;;;;;;;;;;4935215;29;20199;-72
2022/03/26 01:37:36;;;;;;;0.20;0.20;;;;;;;;;;4935757;29;20234;-72
2022/03/26 01:40:04;;;;;;;0.00;0.00;;;;;;;;;;4935575;29;20736;-72
2022/03/26 01:42:32;;;;;;;0.00;0.00;;;;;;;;;;4935372;29;20716;-75
2022/03/26 01:45:01;;;;;;;0.00;0.00;;;;;;;;;;4935593;29;20650;-72
2022/03/26 01:47:28;;;;;;;0.00;0.00;;;;;;;;;;4935362;29;20206;-72
2022/03/26 01:49:55;;;;;;;0.00;0.00;;;;;;;;;;4935611;29;20723;-72
2022/03/26 01:52:23;;;;;;;0.00;0.00;;;;;;;;;;4935288;29;20294;-72
2022/03/26 01:54:50;;;;;;;0.00;0.00;;;;;;;;;;4935109;29;20191;-72
2022/03/26 01:57:19;;;;;;;0.13;0.13;;;;;;;;;;4935452;29;20294;-71
2022/03/26 01:59:46;;;;;;;0.00;0.00;;;;;;;;;;4935076;29;20255;-72
2022/03/26 02:02:15;;;;;;;0.00;0.00;;;;;;;;;;4935347;29;20207;-72
2022/03/26 02:04:43;;;;;;;0.00;0.00;;;;;;;;;;4935166;29;20200;-73
2022/03/26 02:07:11;;;;;;;0.00;0.00;;;;;;;;;;4935192;29;20653;-72
2022/03/26 02:09:38;;;;;;;0.73;0.73;;;;;;;;;;4935370;29;20235;-73
2022/03/26 02:12:22;;;;;;;0.00;0.00;;;;;;;;;;4935081;29;20202;-72
2022/03/26 02:14:50;;;;;;;0.00;0.00;;;;;;;;;;4934983;29;20207;-72
2022/03/26 02:17:19;;;;;;;0.13;0.13;;;;;;;;;;4935042;29;20199;-72
2022/03/26 02:19:50;;;;;;;0.00;0.00;;;;;;;;;;4935029;29;20679;-73
2022/03/26 02:22:20;;;;;;;0.10;0.10;;;;;;;;;;4935015;29;20683;-73
2022/03/26 02:24:47;;;;;;;0.00;0.00;;;;;;;;;;4934850;29;20673;-72
2022/03/26 02:27:15;;;;;;;0.73;0.73;;;;;;;;;;4935093;29;20567;-72
2022/03/26 02:29:42;;;;;;;0.00;0.00;;;;;;;;;;4934945;29;20211;-72
2022/03/26 02:32:11;;;;;;;1.83;1.73;;;;;;;;;;4935222;29;20274;-72
2022/03/26 02:34:39;;;;;;;0.00;0.00;;;;;;;;;;4935132;29;20605;-72
2022/03/26 02:37:08;;;;;;;0.00;0.00;;;;;;;;;;4935171;29;20202;-72
2022/03/26 02:39:35;;;;;;;0.00;0.00;;;;;;;;;;4935326;29;20192;-72
2022/03/26 02:42:03;;;;;;;8.23;7.40;;;;;;;;;;4935002;29;20311;-72
2022/03/26 02:44:30;;;;;;;0.20;0.13;;;;;;;;;;4934862;29;20196;-72
2022/03/26 02:46:58;;;;;;;0.07;0.07;;;;;;;;;;4937016;29;20202;-72
2022/03/26 02:49:25;;;;;;;1.57;0.77;;;;;;;;;;4938734;29;20227;-72
2022/03/26 02:51:53;;;;;;;0.00;0.00;;;;;;;;;;4938685;29;20192;-72
2022/03/26 02:54:22;;;;;;;0.00;0.00;;;;;;;;;;4938782;29;20196;-72
2022/03/26 02:56:50;;;;;;;0.00;0.00;;;;;;;;;;4938311;29;20196;-72
2022/03/26 02:59:18;;;;;;;0.00;0.00;;;;;;;;;;4938576;29;20322;-72
2022/03/26 03:01:46;;;;;;;0.00;0.00;;;;;;;;;;4938847;29;20252;-72
2022/03/26 03:04:13;;;;;;;0.30;0.30;;;;;;;;;;4938661;29;20196;-73
2022/03/26 03:06:41;;;;;;;1.47;1.10;;;;;;;;;;4938412;29;20210;-72
2022/03/26 03:09:09;;;;;;;0.60;0.60;;;;;;;;;;4938425;29;20207;-72
2022/03/26 03:11:37;;;;;;;0.00;0.00;;;;;;;;;;4938319;29;20257;-71
2022/03/26 03:14:06;;;;;;;0.00;0.00;;;;;;;;;;4938225;29;20211;-72
2022/03/26 03:16:33;;;;;;;0.00;0.00;;;;;;;;;;4938216;29;20207;-72
2022/03/26 03:19:01;;;;;;;0.00;0.00;;;;;;;;;;4938393;29;20199;-71
2022/03/26 03:21:29;;;;;;;0.00;0.00;;;;;;;;;;4938050;29;20212;-71
2022/03/26 03:23:57;;;;;;;0.00;0.00;;;;;;;;;;4938260;29;20191;-71
2022/03/26 03:26:25;;;;;;;0.00;0.00;;;;;;;;;;4938134;29;20203;-72
2022/03/26 03:28:53;;;;;;;0.00;0.00;;;;;;;;;;4937965;29;20195;-72
2022/03/26 03:31:21;;;;;;;0.00;0.00;;;;;;;;;;4937913;29;20227;-72
2022/03/26 03:33:48;;;;;;;0.20;0.20;;;;;;;;;;4938043;29;20226;-72
2022/03/26 03:36:16;;;;;;;0.33;0.33;;;;;;;;;;4937944;29;20650;-72
2022/03/26 03:38:43;;;;;;;0.77;0.77;;;;;;;;;;4937751;29;20195;-71
2022/03/26 03:41:11;;;;;;;0.00;0.00;;;;;;;;;;4937816;29;20203;-72
2022/03/26 03:43:38;;;;;;;0.10;0.10;;;;;;;;;;4937772;29;20708;-73
2022/03/26 03:46:07;;;;;;;0.00;0.00;;;;;;;;;;4937419;29;20199;-72
2022/03/26 03:48:38;;;;;;;0.00;0.00;;;;;;;;;;4937607;29;20211;-73
2022/03/26 03:51:06;;;;;;;0.00;0.00;;;;;;;;;;4937534;29;20278;-73
2022/03/26 03:53:33;;;;;;;0.00;0.00;;;;;;;;;;4937626;29;20203;-73
2022/03/26 03:56:00;;;;;;;0.10;0.10;;;;;;;;;;4937637;29;20192;-72
2022/03/26 03:58:28;;;;;;;0.00;0.00;;;;;;;;;;4936977;29;20235;-72
2022/03/26 04:00:55;;;;;;;0.00;0.00;;;;;;;;;;4937117;29;20202;-72
2022/03/26 04:03:25;;;;;;;0.00;0.00;;;;;;;;;;4937275;29;20203;-73
2022/03/26 04:05:52;;;;;;;0.00;0.00;;;;;;;;;;4937303;29;20200;-73
2022/03/26 04:08:21;;;;;;;0.00;0.00;;;;;;;;;;4937582;29;20203;-73
2022/03/26 04:10:48;;;;;;;0.00;0.00;;;;;;;;;;4937236;29;20254;-73
2022/03/26 04:13:16;;;;;;;0.00;0.00;;;;;;;;;;4937191;29;20200;-72
2022/03/26 04:15:43;;;;;;;0.00;0.00;;;;;;;;;;4937211;29;20728;-73
2022/03/26 04:18:10;;;;;;;0.00;0.00;;;;;;;;;;4936955;29;20548;-73
2022/03/26 04:20:40;;;;;;;0.10;0.10;;;;;;;;;;4936870;29;20200;-73
2022/03/26 04:23:07;;;;;;;0.20;0.20;;;;;;;;;;4936890;29;20204;-73
2022/03/26 04:25:35;;;;;;;0.00;0.00;;;;;;;;;;4936935;29;20195;-73
2022/03/26 04:28:03;;;;;;;0.10;0.10;;;;;;;;;;4936952;29;20209;-72
2022/03/26 04:30:31;;;;;;;0.00;0.00;;;;;;;;;;4936850;29;20607;-73
2022/03/26 04:32:58;;;;;;;1.70;1.23;;;;;;;;;;4936836;29;20210;-72
2022/03/26 04:35:26;;;;;;;0.00;0.00;;;;;;;;;;4937121;29;20205;-72
2022/03/26 04:37:56;;;;;;;0.60;0.57;;;;;;;;;;4936901;29;20196;-72
2022/03/26 04:40:23;;;;;;;0.00;0.00;;;;;;;;;;4938188;29;20613;-72
2022/03/26 04:42:51;;;;;;;0.00;0.00;;;;;;;;;;4936735;29;20295;-72
2022/03/26 04:45:19;;;;;;;0.00;0.00;;;;;;;;;;4936777;29;20554;-72
2022/03/26 04:47:46;;;;;;;0.00;0.00;;;;;;;;;;4936779;29;20195;-72
2022/03/26 04:50:14;;;;;;;0.10;0.10;;;;;;;;;;4936557;29;20630;-72
2022/03/26 04:52:41;;;;;;;0.00;0.00;;;;;;;;;;4936411;29;20206;-72
2022/03/26 04:55:12;;;;;;;0.00;0.00;;;;;;;;;;4936569;29;20304;-72
2022/03/26 04:57:40;;;;;;;0.00;0.00;;;;;;;;;;4936112;29;20200;-72
2022/03/26 05:00:09;;;;;;;0.20;0.20;;;;;;;;;;4936614;29;20200;-74
2022/03/26 05:02:39;;;;;;;0.00;0.00;;;;;;;;;;4936259;29;20196;-71
2022/03/26 05:05:07;;;;;;;0.27;0.27;;;;;;;;;;4936354;29;20196;-72
2022/03/26 05:07:46;;;;;;;0.00;0.00;;;;;;;;;;4936364;29;20203;-72
2022/03/26 05:10:15;;;;;;;0.00;0.00;;;;;;;;;;4935153;29;20210;-74
2022/03/26 05:12:43;;;;;;;0.13;0.13;;;;;;;;;;4935806;29;20657;-73
2022/03/26 05:15:11;;;;;;;0.00;0.00;;;;;;;;;;4936240;29;20199;-71
2022/03/26 05:17:39;;;;;;;0.00;0.00;;;;;;;;;;4935981;29;20657;-73
2022/03/26 05:20:08;;;;;;;0.00;0.00;;;;;;;;;;4936138;29;20203;-72
2022/03/26 05:22:36;;;;;;;0.00;0.00;;;;;;;;;;4935703;29;20206;-72
2022/03/26 05:25:04;;;;;;;0.00;0.00;;;;;;;;;;4936130;29;20210;-73
2022/03/26 05:27:33;;;;;;;0.57;0.30;;;;;;;;;;4935879;29;20645;-72
2022/03/26 05:30:01;;;;;;;0.00;0.00;;;;;;;;;;4935733;29;20195;-72
2022/03/26 05:32:28;;;;;;;0.00;0.00;;;;;;;;;;4935801;29;20286;-71
2022/03/26 05:34:56;;;;;;;0.00;0.00;;;;;;;;;;4935584;29;20206;-72
2022/03/26 05:37:23;;;;;;;0.00;0.00;;;;;;;;;;4935642;29;20195;-71
2022/03/26 05:39:51;;;;;;;0.10;0.10;;;;;;;;;;4936198;29;20231;-72
2022/03/26 05:42:19;;;;;;;0.00;0.00;;;;;;;;;;4935575;29;20192;-72
2022/03/26 05:44:48;;;;;;;0.00;0.00;;;;;;;;;;4935796;29;20591;-72
2022/03/26 05:47:17;;;;;;;1.03;0.93;;;;;;;;;;4935699;29;20210;-72
2022/03/26 05:49:44;;;;;;;1.40;1.30;;;;;;;;;;4935477;29;20330;-72
2022/03/26 05:52:12;;;;;;;0.00;0.00;;;;;;;;;;4935345;29;20223;-71
2022/03/26 05:54:40;;;;;;;0.43;0.43;;;;;;;;;;4935317;29;20577;-72
2022/03/26 05:57:07;;;;;;;0.00;0.00;;;;;;;;;;4935223;29;20674;-71
2022/03/26 05:59:35;;;;;;;3.60;3.40;;;;;;;;;;4935466;29;20235;-71
2022/03/26 06:02:04;;;;;;;0.00;0.00;;;;;;;;;;4935299;29;20204;-72
2022/03/26 06:04:31;;;;;;;0.00;0.00;;;;;;;;;;4934985;29;20199;-73
2022/03/26 06:06:59;;;;;;;0.07;0.07;;;;;;;;;;4935242;29;20192;-73
2022/03/26 06:09:26;;;;;;;0.10;0.10;;;;;;;;;;4935427;29;20196;-72
2022/03/26 06:11:55;;;;;;;0.60;0.60;;;;;;;;;;4935270;29;20231;-72
2022/03/26 06:14:24;;;;;;;0.00;0.00;;;;;;;;;;4935363;29;20200;-72
2022/03/26 06:16:52;;;;;;;0.00;0.00;;;;;;;;;;4934809;29;20203;-73
2022/03/26 06:19:20;;;;;;;0.00;0.00;;;;;;;;;;4935229;29;20211;-73
2022/03/26 06:21:48;;;;;;;0.73;0.73;;;;;;;;;;4934979;29;20558;-71
2022/03/26 06:24:15;;;;;;;0.33;0.33;;;;;;;;;;4935111;29;20191;-73
2022/03/26 06:26:44;;;;;;;0.47;0.47;;;;;;;;;;4934801;29;20207;-73
2022/03/26 06:29:12;;;;;;;0.20;0.20;;;;;;;;;;4934942;29;20192;-73
2022/03/26 06:31:39;;;;;;;0.00;0.00;;;;;;;;;;4935005;29;20680;-73
2022/03/26 06:34:07;;;;;;;0.40;0.40;;;;;;;;;;4935312;29;20204;-73
2022/03/26 06:36:37;;;;;;;0.37;0.37;;;;;;;;;;4934680;29;20646;-72
2022/03/26 06:39:06;;;;;;;0.37;0.37;;;;;;;;;;4934948;29;20200;-73
2022/03/26 06:41:35;;;;;;;0.87;0.77;;;;;;;;;;4934898;29;20291;-72
2022/03/26 06:44:07;;;;;;;1.03;0.93;;;;;;;;;;4934920;29;20243;-72
2022/03/26 06:46:36;;;;;;;0.73;0.30;;;;;;;;;;4934530;29;20192;-72
2022/03/26 06:49:03;;;;;;;10.47;1.43;;;;;;;;;;4935050;29;20202;-72
2022/03/26 06:51:31;;;;;;;2.23;1.47;;;;;;;;;;4934740;29;20318;-71
2022/03/26 06:54:00;;;;;;;1.03;0.77;;;;;;;;;;4934898;29;20246;-71
2022/03/26 06:56:28;;;;;;;5.30;0.83;;;;;;;;;;4934605;29;20200;-71
2022/03/26 06:58:56;;;;;;;0.37;0.37;;;;;;;;;;4934458;29;20250;-71
2022/03/26 07:01:23;;;;;;;1.03;0.87;;;;;;;;;;4934860;29;20196;-71
2022/03/26 07:03:52;;;;;;;3.03;1.83;;;;;;;;;;4934777;29;20598;-71
2022/03/26 07:06:20;;;;;;;5.13;4.17;;;;;;;;;;4934812;29;20274;-70
2022/03/26 07:08:48;;;;;;;4.53;3.57;;;;;;;;;;4934487;29;20657;-71
2022/03/26 07:11:17;;;;;;;0.00;0.00;;;;;;;;;;4934784;29;20310;-71
2022/03/26 07:13:45;;;;;;;0.00;0.00;;;;;;;;;;4934818;29;20526;-71
2022/03/26 07:16:12;;;;;;;0.63;0.63;;;;;;;;;;4934769;29;20196;-71
2022/03/26 07:18:40;;;;;;;0.13;0.13;;;;;;;;;;4934618;29;20199;-71
2022/03/26 07:21:08;;;;;;;0.30;0.30;;;;;;;;;;4934629;29;20203;-71
2022/03/26 07:23:35;;;;;;;1.10;0.80;;;;;;;;;;4934502;29;20227;-71
2022/03/26 07:26:03;;;;;;;0.20;0.20;;;;;;;;;;4934772;29;20202;-71
2022/03/26 07:28:32;;;;;;;0.73;0.73;;;;;;;;;;4934681;29;20207;-74
2022/03/26 07:31:00;;;;;;;0.90;0.30;;;;;;;;;;4934621;29;20196;-71
2022/03/26 07:33:28;;;;;;;0.20;0.17;;;;;;;;;;4935477;29;20653;-73
2022/03/26 07:35:55;;;;;;;0.10;0.10;;;;;;;;;;4937899;29;20199;-75
2022/03/26 07:38:23;;;;;;;1.27;1.13;;;;;;;;;;4937933;29;20568;-72
2022/03/26 07:40:50;;;;;;;2.73;2.53;;;;;;;;;;4937907;29;20196;-72
2022/03/26 07:43:18;;;;;;;0.77;0.77;;;;;;;;;;4937824;29;20205;-71
2022/03/26 07:45:47;;;;;;;0.03;0.03;;;;;;;;;;4937646;29;20203;-71
2022/03/26 07:48:14;;;;;;;0.40;0.30;;;;;;;;;;4937722;29;20203;-71
2022/03/26 07:50:42;;;;;;;0.53;0.53;;;;;;;;;;4937375;29;20199;-71
2022/03/26 07:53:09;;;;;;;1.57;1.50;;;;;;;;;;4937665;29;20231;-71
2022/03/26 07:55:37;;;;;;;8.03;3.30;;;;;;;;;;4937641;29;20204;-70
2022/03/26 07:58:04;;;;;;;0.13;0.13;;;;;;;;;;4937616;29;20232;-73
2022/03/26 08:00:32;;;;;;;1.17;0.93;;;;;;;;;;4937240;29;20200;-74
2022/03/26 08:03:01;;;;;;;1.30;1.20;;;;;;;;;;4937435;29;20200;-70
2022/03/26 08:05:28;;;;;;;13.83;4.50;;;;;;;;;;4937390;29;20263;-71
2022/03/26 08:07:56;;;;;;;1.60;0.83;;;;;;;;;;4937066;29;20198;-72
2022/03/26 08:10:24;;;;;;;0.60;0.53;;;;;;;;;;4937645;29;20200;-71
2022/03/26 08:12:51;;;;;;;1.33;0.93;;;;;;;;;;4936918;29;20798;-70
2022/03/26 08:15:19;;;;;;;7.30;1.37;;;;;;;;;;4936949;29;20553;-69
2022/03/26 08:17:46;;;;;;;1.80;1.70;;;;;;;;;;4936770;29;20199;-70
2022/03/26 08:20:15;;;;;;;2.27;0.53;;;;;;;;;;4936870;29;20204;-70
2022/03/26 08:22:42;;;;;;;4.70;2.67;;;;;;;;;;4936980;29;20199;-70
2022/03/26 08:25:11;;;;;;;4.10;2.70;;;;;;;;;;4937256;29;20195;-70
2022/03/26 08:27:38;;;;;;;0.50;0.50;;;;;;;;;;4937116;29;20199;-70
2022/03/26 08:30:08;;;;;;;0.30;0.20;;;;;;;;;;4937015;29;20588;-71
2022/03/26 08:32:35;;;;;;;0.43;0.43;;;;;;;;;;4936482;29;20238;-71
2022/03/26 08:35:03;;;;;;;0.40;0.40;;;;;;;;;;4936733;29;20206;-71
2022/03/26 08:37:32;;;;;;;1.70;1.00;;;;;;;;;;4936808;29;20191;-71
2022/03/26 08:39:59;;;;;;;0.97;0.97;;;;;;;;;;4936703;29;20196;-71
2022/03/26 08:42:27;;;;;;;1.33;1.23;;;;;;;;;;4936743;29;20310;-70
2022/03/26 08:44:54;;;;;;;2.20;1.30;;;;;;;;;;4936172;29;20202;-70
2022/03/26 08:47:22;;;;;;;1.40;0.90;;;;;;;;;;4936893;29;20242;-70
2022/03/26 08:49:49;;;;;;;0.50;0.50;;;;;;;;;;4936733;29;20234;-72
2022/03/26 08:52:17;;;;;;;0.33;0.33;;;;;;;;;;4936425;29;20223;-73
2022/03/26 08:54:46;;;;;;;0.67;0.67;;;;;;;;;;4936329;29;20207;-73
2022/03/26 08:57:14;;;;;;;0.20;0.20;;;;;;;;;;4936432;29;20199;-72
2022/03/26 08:59:43;;;;;;;2.88;1.95;;;;;;;;;;4936185;29;20266;-72
2022/03/26 09:02:11;;;;;;;3.33;1.98;;;;;;;;;;4936681;29;20207;-72
2022/03/26 09:04:39;;;;;;;0.30;0.30;;;;;;;;;;4936178;29;20195;-73
2022/03/26 09:07:06;;;;;;;0.30;0.30;;;;;;;;;;4936305;29;20657;-72
2022/03/26 09:09:33;;;;;;;6.72;2.05;;;;;;;;;;4936276;29;20200;-73
2022/03/26 09:12:02;;;;;;;5.70;2.50;;;;;;;;;;4936006;29;20571;-73
2022/03/26 09:14:30;;;;;;;0.70;0.38;;;;;;;;;;4936486;29;20204;-73
2022/03/26 09:16:57;;;;;;;1.30;1.30;;;;;;;;;;4936315;29;20196;-72
2022/03/26 09:19:25;;;;;;;0.28;0.08;;;;;;;;;;4936250;29;20203;-73
2022/03/26 09:21:53;;;;;;;0.20;0.17;;;;;;;;;;4936231;29;20215;-73
2022/03/26 09:24:23;;;;;;;4.03;2.13;;;;;;;;;;4935868;29;20725;-72
2022/03/26 09:26:50;;;;;;;2.17;2.03;;;;;;;;;;4935616;29;20250;-72
2022/03/26 09:29:19;;;;;;;3.13;1.08;;;;;;;;;;4936207;29;20210;-73
2022/03/26 09:31:46;;;;;;;0.28;0.28;;;;;;;;;;4935913;29;20200;-73
2022/03/26 09:34:14;;;;;;;1.23;0.95;;;;;;;;;;4935740;29;20195;-73
2022/03/26 09:36:42;;;;;;;5.07;2.00;;;;;;;;;;4935554;29;20199;-74
2022/03/26 09:39:09;;;;;;;2.30;2.10;;;;;;;;;;4935928;29;20565;-73
2022/03/26 09:41:37;;;;;;;5.25;2.78;;;;;;;;;;4935635;29;20199;-74
2022/03/26 09:44:05;;;;;;;0.68;0.68;;;;;;;;;;4935862;29;20212;-73
2022/03/26 09:46:34;;;;;;;4.75;2.20;;;;;;;;;;4935452;29;20210;-73
2022/03/26 09:49:02;;;;;;;2.55;2.05;;;;;;;;;;4935537;29;20197;-72
2022/03/26 09:51:30;;;;;;;1.50;1.40;;;;;;;;;;4935622;29;20204;-73
2022/03/26 09:53:57;;;;;;;2.60;2.33;;;;;;;;;;4935708;29;20238;-72
2022/03/26 09:56:25;;;;;;;1.77;1.67;;;;;;;;;;4934963;29;20192;-72
2022/03/26 09:58:53;;;;;;;2.30;1.50;;;;;;;;;;4934877;29;20250;-70
2022/03/26 10:01:22;;;;;;;1.45;1.20;;;;;;;;;;4935285;29;20195;-71
2022/03/26 10:04:09;;;;;;;4.40;2.47;;;;;;;;;;4935344;29;20227;-70
2022/03/26 10:06:37;;;;;;;5.18;2.60;;;;;;;;;;4935150;29;20669;-70
2022/03/26 10:09:05;;;;;;;1.25;1.05;;;;;;;;;;4935583;29;20210;-69
2022/03/26 10:11:34;;;;;;;2.00;1.60;;;;;;;;;;4935375;29;20563;-70
2022/03/26 10:14:02;;;;;;;3.60;3.28;;;;;;;;;;4935334;29;20583;-73
2022/03/26 10:16:29;;;;;;;0.77;0.77;;;;;;;;;;4935322;29;20203;-73
2022/03/26 10:19:00;;;;;;;0.20;0.20;;;;;;;;;;4935350;29;20203;-71
2022/03/26 10:21:29;;;;;;;1.38;0.63;;;;;;;;;;4935696;29;20207;-74
2022/03/26 10:23:57;;;;;;;0.22;0.22;;;;;;;;;;4935147;29;20200;-72
2022/03/26 10:26:26;;;;;;;2.50;1.88;;;;;;;;;;4935165;29;20196;-73
2022/03/26 10:28:54;;;;;;;2.33;1.20;;;;;;;;;;4934751;29;20247;-72
2022/03/26 10:34:08;;;;;;;4.65;0.95;;;;;;;;;;4935094;29;20229;-75
2022/03/26 10:36:41;;;;;;;1.35;1.27;;;;;;;;;;4934877;29;20196;-71
2022/03/26 10:39:15;;;;;;;4.18;1.27;;;;;;;;;;4934930;29;20657;-74
2022/03/26 10:41:42;;;;;;;0.80;0.80;;;;;;;;;;4934951;29;20200;-78
2022/03/26 10:44:11;;;;;;;2.58;1.85;;;;;;;;;;4934855;29;20196;-71
2022/03/26 10:46:46;;;;;;;3.03;2.80;;;;;;;;;;4934670;29;20679;-70
2022/03/26 10:49:13;;;;;;;2.20;1.15;;;;;;;;;;4935001;29;20302;-70
2022/03/26 10:52:07;;;;;;;1.13;1.00;;;;;;;;;;4938238;29;20200;-70
2022/03/26 10:54:36;;;;;;;0.85;0.63;;;;;;;;;;4944628;29;20559;-71
2022/03/26 10:57:05;;;;;;;1.77;1.63;;;;;;;;;;4935255;29;20333;-71
2022/03/26 10:59:33;;;;;;;0.80;0.77;;;;;;;;;;4934633;29;20486;-71
2022/03/26 11:02:01;;;;;;;0.80;0.80;;;;;;;;;;4934885;29;20207;-71
2022/03/26 11:04:28;;;;;;;0.50;0.50;;;;;;;;;;4941440;29;20200;-71
2022/03/26 11:06:58;;;;;;;4.90;1.55;;;;;;;;;;4934800;29;20210;-70
2022/03/26 11:09:26;;;;;;;0.70;0.70;;;;;;;;;;4937226;29;20196;-70
2022/03/26 11:11:58;;;;;;;2.58;1.95;;;;;;;;;;4938419;29;20536;-70
2022/03/26 11:14:28;;;;;;;2.00;1.90;;;;;;;;;;4938440;29;20553;-70
2022/03/26 11:16:59;;;;;;;2.25;1.75;;;;;;;;;;4938102;29;20234;-72
2022/03/26 11:19:33;;;;;;;2.00;0.75;;;;;;;;;;4938410;29;20206;-72
2022/03/26 11:22:17;;;;;;;2.67;2.47;;;;;;;;;;4938181;29;20605;-72
2022/03/26 11:24:54;;;;;;;3.15;1.42;;;;;;;;;;4937900;29;20295;-72
2022/03/26 11:27:32;;;;;;;3.72;3.42;;;;;;;;;;4938146;29;20195;-69
2022/03/26 11:30:05;;;;;;;2.10;1.90;;;;;;;;;;4938122;29;20203;-72
2022/03/26 11:32:34;;;;;;;3.72;2.38;;;;;;;;;;4937583;29;20278;-72
2022/03/26 11:35:03;;;;;;;1.85;1.45;;;;;;;;;;4938076;29;20692;-71
2022/03/26 11:37:30;;;;;;;1.03;1.03;;;;;;;;;;4938320;29;20200;-71
2022/03/26 11:39:58;;;;;;;2.10;1.83;;;;;;;;;;4937770;29;20585;-71
2022/03/26 11:42:26;;;;;;;0.00;0.00;;;;;;;;;;4938253;29;20210;-71
2022/03/26 11:50:45;;;;;;;1.00;0.93;;;;;;;;;;4937831;29;20695;-72
2022/03/26 11:53:15;;;;;;;1.55;1.45;;;;;;;;;;4937803;29;20239;-73
2022/03/26 11:55:43;;;;;;;2.05;1.30;;;;;;;;;;4937680;29;20214;-72
2022/03/26 11:58:14;;;;;;;4.13;3.00;;;;;;;;;;4937502;29;20236;-72
2022/03/26 12:00:56;;;;;;;10.63;2.70;;;;;;;;;;4937264;29;20203;-72
2022/03/26 12:03:24;;;;;;;2.13;2.03;;;;;;;;;;4937516;29;20196;-73
2022/03/26 12:08:42;;;;;;;1.33;0.75;;;;;;;;;;4937266;29;20203;-72
2022/03/26 12:11:14;;;;;;;1.25;1.20;;;;;;;;;;4937308;29;20701;-72
2022/03/26 12:13:41;;;;;;;3.65;2.38;;;;;;;;;;4937599;29;20231;-72
2022/03/26 12:16:10;;;;;;;3.35;2.83;;;;;;;;;;4937344;29;20266;-72
2022/03/26 12:18:39;;;;;;;2.35;1.30;;;;;;;;;;4936806;29;20247;-72
2022/03/26 12:21:10;;;;;;;1.40;0.82;;;;;;;;;;4937095;29;20199;-72
2022/03/26 12:23:38;;;;;;;3.88;2.95;;;;;;;;;;4937245;29;20212;-71
2022/03/26 12:26:06;;;;;;;1.80;0.47;;;;;;;;;;4937254;29;20547;-72
2022/03/26 12:28:36;;;;;;;3.63;3.28;;;;;;;;;;4936721;29;20785;-72
2022/03/26 12:31:05;;;;;;;0.00;0.00;;;;;;;;;;4937150;29;20213;-72
2022/03/26 12:33:44;;;;;;;2.35;2.13;;;;;;;;;;4937013;29;20318;-71
2022/03/26 12:36:12;;;;;;;4.55;3.45;;;;;;;;;;4936827;29;20195;-71
2022/03/26 12:38:41;;;;;;;1.73;1.63;;;;;;;;;;4936868;29;20554;-72
2022/03/26 12:41:09;;;;;;;3.67;2.03;;;;;;;;;;4936863;29;20202;-71
2022/03/26 12:43:37;;;;;;;5.50;2.55;;;;;;;;;;4936893;29;20199;-71
2022/03/26 12:46:09;;;;;;;1.75;1.30;;;;;;;;;;4936681;29;20287;-71
2022/03/26 12:48:37;;;;;;;3.00;2.08;;;;;;;;;;4936533;29;20207;-71
2022/03/26 12:51:07;;;;;;;0.90;0.80;;;;;;;;;;4936930;29;20231;-71
2022/03/26 12:53:37;;;;;;;1.42;1.38;;;;;;;;;;4936513;29;20697;-71
2022/03/26 12:56:05;;;;;;;1.10;0.93;;;;;;;;;;4936625;29;20195;-71
2022/03/26 13:01:21;;;;;;;1.85;1.75;;;;;;;;;;4936514;29;20222;-71
2022/03/26 13:03:48;;;;;;;2.03;1.92;;;;;;;;;;4936235;29;20196;-72
2022/03/26 13:06:18;;;;;;;8.80;4.47;;;;;;;;;;4936311;29;20206;-71
2022/03/26 13:08:49;;;;;;;0.70;0.70;;;;;;;;;;4936111;29;20207;-71
2022/03/26 13:11:17;;;;;;;1.02;0.77;;;;;;;;;;4936223;29;20206;-72
2022/03/26 13:13:45;;;;;;;0.52;0.52;;;;;;;;;;4936015;29;20330;-71
2022/03/26 13:16:15;;;;;;;1.95;0.70;;;;;;;;;;4936261;29;20294;-71
2022/03/26 13:18:43;;;;;;;2.45;1.35;;;;;;;;;;4936149;29;20250;-71
2022/03/26 13:21:12;;;;;;;1.75;1.02;;;;;;;;;;4936272;29;20206;-69
2022/03/26 13:23:52;;;;;;;0.60;0.60;;;;;;;;;;4935922;29;20203;-72
2022/03/26 13:26:19;;;;;;;0.68;0.68;;;;;;;;;;4935808;29;20200;-74
2022/03/26 13:28:47;;;;;;;2.55;2.35;;;;;;;;;;4935630;29;20199;-72
2022/03/26 13:31:18;;;;;;;0.40;0.40;;;;;;;;;;4935032;29;20672;-72
2022/03/26 13:33:46;;;;;;;14.55;1.35;;;;;;;;;;4935683;29;20711;-72
2022/03/26 13:36:13;;;;;;;2.50;1.70;;;;;;;;;;4936007;29;20290;-72
2022/03/26 13:38:44;;;;;;;1.33;1.13;;;;;;;;;;4935541;29;20679;-72
2022/03/26 13:41:15;;;;;;;0.70;0.70;;;;;;;;;;4935585;29;20196;-71
2022/03/26 13:43:43;;;;;;;0.63;0.63;;;;;;;;;;4935812;29;20196;-72
2022/03/26 13:46:11;;;;;;;1.10;0.75;;;;;;;;;;4935606;29;20291;-72
2022/03/26 13:48:48;;;;;;;3.08;2.88;;;;;;;;;;4935308;29;20195;-71
2022/03/26 13:51:16;;;;;;;1.50;0.85;;;;;;;;;;4935576;29;20207;-73
2022/03/26 13:53:45;;;;;;;2.75;1.45;;;;;;;;;;4935581;29;20231;-73
2022/03/26 13:56:13;;;;;;;1.65;0.52;;;;;;;;;;4935427;29;20703;-74
2022/03/26 13:58:43;;;;;;;2.67;2.47;;;;;;;;;;4935098;29;20720;-74
2022/03/26 14:01:10;;;;;;;6.68;2.45;;;;;;;;;;4935468;29;20207;-73
2022/03/26 14:03:40;;;;;;;0.52;0.52;;;;;;;;;;4935239;29;20198;-73
2022/03/26 14:06:07;;;;;;;1.40;1.30;;;;;;;;;;4935359;29;20206;-73
2022/03/26 14:08:36;;;;;;;1.08;1.08;;;;;;;;;;4935239;29;20202;-73
2022/03/26 14:11:05;;;;;;;1.13;1.00;;;;;;;;;;4935343;29;20278;-73
2022/03/26 14:13:33;;;;;;;22.80;11.25;;;;;;;;;;4935156;29;20314;-73
2022/03/26 14:16:00;;;;;;;1.67;1.52;;;;;;;;;;4935282;29;20667;-73
2022/03/26 14:18:28;;;;;;;0.10;0.10;;;;;;;;;;4935145;29;20201;-73
2022/03/26 14:20:55;;;;;;;4.13;1.70;;;;;;;;;;4935140;29;20620;-74
2022/03/26 14:23:23;;;;;;;1.52;1.08;;;;;;;;;;4935245;29;20199;-74
2022/03/26 14:25:51;;;;;;;2.50;1.95;;;;;;;;;;4935300;29;20294;-73
2022/03/26 14:28:19;;;;;;;0.10;0.10;;;;;;;;;;4935258;29;20220;-73
2022/03/26 14:30:47;;;;;;;0.50;0.45;;;;;;;;;;4934722;29;20234;-73
2022/03/26 14:33:16;;;;;;;1.52;1.27;;;;;;;;;;4934930;29;20575;-73
2022/03/26 14:35:47;;;;;;;2.90;1.45;;;;;;;;;;4934967;29;20198;-73
2022/03/26 14:38:15;;;;;;;1.98;0.75;;;;;;;;;;4934963;29;20666;-73
2022/03/26 14:40:43;;;;;;;0.10;0.10;;;;;;;;;;4934723;29;20195;-73
2022/03/26 14:43:11;;;;;;;3.70;1.85;;;;;;;;;;4937219;29;20566;-74
2022/03/26 14:45:40;;;;;;;6.60;3.20;;;;;;;;;;4938863;29;20199;-73
2022/03/26 14:48:08;;;;;;;4.03;2.17;;;;;;;;;;4938929;29;20653;-71
2022/03/26 14:50:35;;;;;;;2.55;2.17;;;;;;;;;;4938792;29;20203;-72
2022/03/26 14:53:02;;;;;;;7.82;3.75;;;;;;;;;;4938694;29;20195;-73
2022/03/26 14:55:30;;;;;;;11.25;6.65;;;;;;;;;;4938486;29;20227;-72
2022/03/26 14:57:58;;;;;;;2.25;2.05;;;;;;;;;;4938326;29;20227;-71
2022/03/26 15:00:26;;;;;;;4.30;3.97;;;;;;;;;;4938762;29;20593;-73
2022/03/26 15:02:55;;;;;;;2.92;2.55;;;;;;;;;;4938232;29;20649;-73
2022/03/26 15:05:24;;;;;;;2.05;1.90;;;;;;;;;;4938738;29;20215;-73